Time;durP1;ratioP1;P1;durP2;ratioP2;P2;SDS_P1;SDS_P2;PMS_P1;PMS_P2;Temp;Humidity;BMP_temperature;BMP_pressure;BME280_temperature;BME280_humidity;BME280_pressure;Samples;Min_cycle;Max_cycle;Signal;HPM_P1;HPM_P2
2023/07/09 00:02:14;;;;;;;10.10;7.80;;;;;;;;;;5005909;28;20053;-77
2023/07/09 00:04:42;;;;;;;11.10;8.40;;;;;;;;;;4997398;28;20038;-78
2023/07/09 00:07:18;;;;;;;10.85;7.95;;;;;;;;;;4996876;28;20560;-78
2023/07/09 00:09:45;;;;;;;10.93;7.93;;;;;;;;;;5004138;28;20050;-78
2023/07/09 00:12:14;;;;;;;11.38;8.73;;;;;;;;;;5002514;28;20052;-78
2023/07/09 00:14:41;;;;;;;10.07;8.20;;;;;;;;;;4994240;28;20076;-77
2023/07/09 00:17:11;;;;;;;11.27;8.70;;;;;;;;;;4994453;28;20082;-78
2023/07/09 00:19:39;;;;;;;11.50;9.75;;;;;;;;;;4993555;28;20086;-78
2023/07/09 00:22:16;;;;;;;10.82;8.13;;;;;;;;;;4996257;28;20081;-79
2023/07/09 00:24:44;;;;;;;12.82;8.00;;;;;;;;;;5033506;22;20047;-60
2023/07/09 00:27:11;;;;;;;12.55;8.52;;;;;;;;;;5027856;28;20056;-59
2023/07/09 00:29:37;;;;;;;11.68;8.95;;;;;;;;;;5029134;28;20045;-60
2023/07/09 00:32:05;;;;;;;11.35;8.70;;;;;;;;;;5028617;28;20049;-59
2023/07/09 00:34:33;;;;;;;9.75;8.07;;;;;;;;;;5029124;28;20144;-59
2023/07/09 00:37:01;;;;;;;10.70;8.20;;;;;;;;;;5028724;28;20067;-60
2023/07/09 00:39:28;;;;;;;10.15;7.97;;;;;;;;;;5028787;28;20053;-59
2023/07/09 00:41:55;;;;;;;11.32;7.97;;;;;;;;;;5027937;28;20044;-60
2023/07/09 00:44:30;;;;;;;10.35;7.88;;;;;;;;;;5029236;28;20108;-59
2023/07/09 00:47:25;;;;;;;10.70;7.95;;;;;;;;;;5028716;28;21530;-60
2023/07/09 00:50:00;;;;;;;11.02;7.90;;;;;;;;;;5028330;28;20060;-58
2023/07/09 00:52:35;;;;;;;11.77;8.48;;;;;;;;;;5028633;28;20064;-60
2023/07/09 00:55:07;;;;;;;11.10;7.88;;;;;;;;;;5028533;28;20057;-59
2023/07/09 00:57:38;;;;;;;10.68;7.25;;;;;;;;;;5028884;28;20053;-60
2023/07/09 01:00:10;;;;;;;10.05;7.40;;;;;;;;;;5028113;28;20057;-60
2023/07/09 01:02:38;;;;;;;10.77;8.32;;;;;;;;;;5028716;28;20052;-60
2023/07/09 01:05:06;;;;;;;12.18;7.70;;;;;;;;;;5029616;28;20364;-59
2023/07/09 01:07:34;;;;;;;10.25;7.75;;;;;;;;;;5028957;28;20049;-59
2023/07/09 01:10:01;;;;;;;10.40;7.97;;;;;;;;;;5028482;28;20465;-59
2023/07/09 01:12:30;;;;;;;10.18;7.50;;;;;;;;;;5027958;28;20054;-60
2023/07/09 01:14:59;;;;;;;11.70;7.87;;;;;;;;;;5028084;28;20055;-59
2023/07/09 01:17:27;;;;;;;13.25;8.93;;;;;;;;;;5028299;28;20278;-59
2023/07/09 01:19:55;;;;;;;10.30;8.07;;;;;;;;;;5027973;28;20057;-59
2023/07/09 01:22:24;;;;;;;9.73;7.15;;;;;;;;;;5028344;28;20542;-60
2023/07/09 01:25:01;;;;;;;10.95;7.60;;;;;;;;;;5027730;28;20057;-58
2023/07/09 01:27:31;;;;;;;10.23;7.15;;;;;;;;;;5028000;28;20426;-58
2023/07/09 01:29:57;;;;;;;;;;;;;;;;;;5028319;28;20089;-60
2023/07/09 01:32:24;;;;;;;8.65;7.25;;;;;;;;;;5027376;28;21661;-59
2023/07/09 01:34:54;;;;;;;9.32;6.90;;;;;;;;;;5028559;28;20057;-59
2023/07/09 01:37:25;;;;;;;8.70;6.53;;;;;;;;;;5027997;28;20139;-59
2023/07/09 01:39:52;;;;;;;10.02;6.60;;;;;;;;;;5027819;28;20049;-59
2023/07/09 01:42:21;;;;;;;9.77;6.57;;;;;;;;;;5027764;28;20053;-57
2023/07/09 01:44:49;;;;;;;9.90;7.13;;;;;;;;;;5027663;28;20675;-59
2023/07/09 01:47:15;;;;;;;9.48;7.80;;;;;;;;;;5027803;28;20064;-58
2023/07/09 01:49:46;;;;;;;10.32;7.57;;;;;;;;;;5027354;28;20061;-59
2023/07/09 01:52:16;;;;;;;8.80;7.72;;;;;;;;;;5027587;28;20061;-59
2023/07/09 01:54:49;;;;;;;10.10;7.60;;;;;;;;;;5027750;28;20404;-59
2023/07/09 01:57:22;;;;;;;9.70;7.00;;;;;;;;;;5027720;28;20096;-59
2023/07/09 01:59:50;;;;;;;9.48;7.53;;;;;;;;;;5027194;28;20136;-59
2023/07/09 02:02:19;;;;;;;10.73;8.07;;;;;;;;;;5027356;28;20049;-60
2023/07/09 02:04:50;;;;;;;9.57;8.32;;;;;;;;;;5027976;28;20128;-59
2023/07/09 02:07:17;;;;;;;10.20;7.72;;;;;;;;;;5027576;28;20103;-59
2023/07/09 02:09:45;;;;;;;10.75;7.70;;;;;;;;;;5027756;28;20045;-60
2023/07/09 02:12:14;;;;;;;9.55;7.45;;;;;;;;;;5027540;28;20045;-59
2023/07/09 02:14:41;;;;;;;9.90;7.80;;;;;;;;;;5026601;28;20052;-59
2023/07/09 02:17:09;;;;;;;9.73;7.00;;;;;;;;;;5026693;28;20049;-59
2023/07/09 02:19:36;;;;;;;8.88;6.85;;;;;;;;;;5027512;28;20045;-59
2023/07/09 02:22:03;;;;;;;10.27;6.90;;;;;;;;;;5027342;28;20107;-59
2023/07/09 02:24:30;;;;;;;7.78;6.47;;;;;;;;;;5026776;28;20107;-59
2023/07/09 02:27:00;;;;;;;9.40;7.40;;;;;;;;;;5027563;28;20054;-59
2023/07/09 02:29:29;;;;;;;8.73;6.80;;;;;;;;;;5027267;28;20057;-59
2023/07/09 02:31:57;;;;;;;9.52;6.78;;;;;;;;;;5027417;28;20049;-58
2023/07/09 02:34:25;;;;;;;9.93;7.18;;;;;;;;;;5027884;28;20395;-60
2023/07/09 02:36:53;;;;;;;10.32;6.38;;;;;;;;;;5027636;28;20041;-60
2023/07/09 02:39:20;;;;;;;10.23;7.10;;;;;;;;;;5028928;28;20395;-60
2023/07/09 02:41:47;;;;;;;9.95;6.88;;;;;;;;;;5040452;28;20060;-60
2023/07/09 02:44:17;;;;;;;9.15;7.15;;;;;;;;;;5050094;28;20543;-58
2023/07/09 02:46:44;;;;;;;9.02;6.78;;;;;;;;;;5054734;28;20060;-60
2023/07/09 02:49:13;;;;;;;9.02;6.68;;;;;;;;;;5054872;28;20049;-58
2023/07/09 02:51:40;;;;;;;9.18;6.80;;;;;;;;;;5045438;28;20454;-59
2023/07/09 02:54:07;;;;;;;11.45;7.32;;;;;;;;;;5034596;28;20108;-59
2023/07/09 02:56:34;;;;;;;8.52;6.93;;;;;;;;;;5035222;28;20414;-59
2023/07/09 02:59:01;;;;;;;9.38;6.65;;;;;;;;;;5035204;28;20491;-59
2023/07/09 03:01:29;;;;;;;10.40;6.88;;;;;;;;;;5035350;28;20057;-59
2023/07/09 03:03:57;;;;;;;9.63;6.82;;;;;;;;;;5037958;28;20057;-59
2023/07/09 03:06:25;;;;;;;8.65;6.95;;;;;;;;;;5035554;28;20418;-60
2023/07/09 03:08:52;;;;;;;10.93;6.85;;;;;;;;;;5035490;28;20473;-59
2023/07/09 03:11:20;;;;;;;8.50;6.65;;;;;;;;;;5034471;28;20057;-59
2023/07/09 03:13:48;;;;;;;8.70;6.80;;;;;;;;;;5035092;28;20049;-59
2023/07/09 03:16:16;;;;;;;10.65;7.63;;;;;;;;;;5034157;28;20049;-59
2023/07/09 03:18:44;;;;;;;9.73;6.90;;;;;;;;;;5034323;28;20414;-59
2023/07/09 03:21:11;;;;;;;11.63;6.85;;;;;;;;;;5034531;28;20468;-59
2023/07/09 03:23:38;;;;;;;8.88;6.78;;;;;;;;;;5034075;28;20111;-59
2023/07/09 03:26:05;;;;;;;11.85;7.03;;;;;;;;;;5034170;28;20064;-59
2023/07/09 03:28:33;;;;;;;8.75;6.40;;;;;;;;;;5034607;28;20391;-59
2023/07/09 03:31:00;;;;;;;9.00;6.88;;;;;;;;;;5034521;28;20491;-59
2023/07/09 03:33:27;;;;;;;9.25;6.90;;;;;;;;;;5034140;28;20049;-59
2023/07/09 03:35:55;;;;;;;9.80;7.18;;;;;;;;;;5034160;28;20107;-59
2023/07/09 03:38:22;;;;;;;9.00;6.88;;;;;;;;;;5034369;28;20057;-58
2023/07/09 03:40:51;;;;;;;8.85;7.25;;;;;;;;;;5034455;28;20046;-60
2023/07/09 03:43:18;;;;;;;11.10;7.18;;;;;;;;;;5034289;28;20056;-59
2023/07/09 03:45:45;;;;;;;8.80;6.93;;;;;;;;;;5033627;28;20045;-59
2023/07/09 03:48:13;;;;;;;9.25;7.07;;;;;;;;;;5034518;28;20045;-59
2023/07/09 03:50:40;;;;;;;8.75;7.35;;;;;;;;;;5033990;28;20099;-61
2023/07/09 03:53:08;;;;;;;10.25;7.40;;;;;;;;;;5033905;28;20096;-60
2023/07/09 03:55:35;;;;;;;9.73;7.60;;;;;;;;;;5033371;28;20053;-60
2023/07/09 03:58:03;;;;;;;8.25;6.93;;;;;;;;;;5033631;28;20053;-57
2023/07/09 04:00:30;;;;;;;11.23;7.40;;;;;;;;;;5033636;28;20132;-60
2023/07/09 04:02:57;;;;;;;10.05;7.40;;;;;;;;;;5033539;28;20054;-61
2023/07/09 04:05:24;;;;;;;9.18;6.65;;;;;;;;;;5033035;28;20080;-61
2023/07/09 04:07:51;;;;;;;9.82;7.07;;;;;;;;;;5033513;28;20453;-59
2023/07/09 04:10:20;;;;;;;9.57;6.85;;;;;;;;;;5033899;28;20119;-59
2023/07/09 04:12:47;;;;;;;8.75;6.40;;;;;;;;;;5033640;28;20107;-59
2023/07/09 04:15:14;;;;;;;9.15;6.45;;;;;;;;;;5033226;28;20115;-60
2023/07/09 04:17:41;;;;;;;9.25;6.97;;;;;;;;;;5033641;28;20046;-59
2023/07/09 04:20:10;;;;;;;8.23;6.20;;;;;;;;;;5033430;28;20060;-59
2023/07/09 04:22:37;;;;;;;7.72;6.47;;;;;;;;;;5032877;28;20141;-59
2023/07/09 04:25:06;;;;;;;8.02;6.30;;;;;;;;;;5032963;28;20099;-60
2023/07/09 04:27:34;;;;;;;9.60;6.30;;;;;;;;;;5033322;28;20092;-59
2023/07/09 04:30:02;;;;;;;13.07;6.88;;;;;;;;;;5033549;28;20072;-60
2023/07/09 04:32:29;;;;;;;9.15;6.95;;;;;;;;;;5033396;28;20406;-59
2023/07/09 04:34:56;;;;;;;7.72;6.00;;;;;;;;;;5032392;28;20041;-60
2023/07/09 04:37:23;;;;;;;11.40;6.55;;;;;;;;;;5033103;28;20387;-60
2023/07/09 04:39:50;;;;;;;10.43;7.05;;;;;;;;;;5032956;28;20049;-59
2023/07/09 04:42:18;;;;;;;7.88;6.30;;;;;;;;;;5032798;28;20134;-58
2023/07/09 04:44:47;;;;;;;9.15;6.43;;;;;;;;;;5032816;28;20180;-59
2023/07/09 04:47:14;;;;;;;9.23;6.70;;;;;;;;;;5032934;28;20103;-58
2023/07/09 04:49:41;;;;;;;9.23;6.68;;;;;;;;;;5033435;28;20148;-60
2023/07/09 04:52:11;;;;;;;8.68;6.32;;;;;;;;;;5031416;28;20057;-60
2023/07/09 04:54:39;;;;;;;8.32;6.00;;;;;;;;;;5028280;28;20045;-60
2023/07/09 04:57:07;;;;;;;8.80;6.72;;;;;;;;;;5028495;28;20041;-60
2023/07/09 04:59:34;;;;;;;8.32;6.50;;;;;;;;;;5027917;28;20049;-60
2023/07/09 05:02:02;;;;;;;8.77;6.35;;;;;;;;;;5028269;28;20088;-60
2023/07/09 05:04:29;;;;;;;8.75;6.63;;;;;;;;;;5028646;28;20057;-60
2023/07/09 05:06:57;;;;;;;8.27;6.13;;;;;;;;;;5028152;28;20667;-60
2023/07/09 05:09:24;;;;;;;8.63;6.47;;;;;;;;;;5028848;28;20057;-59
2023/07/09 05:11:51;;;;;;;9.05;6.38;;;;;;;;;;5028455;28;20046;-58
2023/07/09 05:14:18;;;;;;;9.07;6.18;;;;;;;;;;5028388;28;20487;-59
2023/07/09 05:16:45;;;;;;;9.00;6.50;;;;;;;;;;5028290;28;20057;-60
2023/07/09 05:19:13;;;;;;;8.70;6.65;;;;;;;;;;5028550;28;20057;-60
2023/07/09 05:21:40;;;;;;;9.82;6.57;;;;;;;;;;5028127;28;20073;-58
2023/07/09 05:24:07;;;;;;;8.32;5.90;;;;;;;;;;5027766;28;20135;-59
2023/07/09 05:26:34;;;;;;;8.00;5.70;;;;;;;;;;5028129;28;20056;-59
2023/07/09 05:29:03;;;;;;;8.50;6.10;;;;;;;;;;5028068;28;20072;-60
2023/07/09 05:31:30;;;;;;;8.50;5.55;;;;;;;;;;5028195;28;20045;-59
2023/07/09 05:33:57;;;;;;;7.30;5.93;;;;;;;;;;5028880;28;20503;-59
2023/07/09 05:36:27;;;;;;;8.32;6.20;;;;;;;;;;5028209;28;20045;-59
2023/07/09 05:38:54;;;;;;;7.93;5.90;;;;;;;;;;5028258;28;20069;-60
2023/07/09 05:41:20;;;;;;;7.25;5.88;;;;;;;;;;5028133;28;20053;-62
2023/07/09 05:43:47;;;;;;;7.07;5.45;;;;;;;;;;5027661;28;20054;-59
2023/07/09 05:46:15;;;;;;;7.25;5.63;;;;;;;;;;5028276;28;20060;-60
2023/07/09 05:48:42;;;;;;;6.72;5.53;;;;;;;;;;5028132;28;20060;-60
2023/07/09 05:51:08;;;;;;;7.18;4.90;;;;;;;;;;5027710;28;20123;-59
2023/07/09 05:53:37;;;;;;;6.78;5.22;;;;;;;;;;5027401;28;20107;-59
2023/07/09 05:56:04;;;;;;;7.97;5.32;;;;;;;;;;5027261;28;20049;-59
2023/07/09 05:58:31;;;;;;;7.07;5.07;;;;;;;;;;5027864;28;20146;-60
2023/07/09 06:00:58;;;;;;;6.00;4.63;;;;;;;;;;5028242;28;20100;-57
2023/07/09 06:03:26;;;;;;;7.38;5.03;;;;;;;;;;5028267;28;20095;-62
2023/07/09 06:05:53;;;;;;;6.80;4.50;;;;;;;;;;5028065;28;20766;-59
2023/07/09 06:08:20;;;;;;;6.90;4.47;;;;;;;;;;5027148;28;20061;-59
2023/07/09 06:11:00;;;;;;;7.75;4.57;;;;;;;;;;5027928;28;20514;-60
2023/07/09 06:13:28;;;;;;;6.03;3.90;;;;;;;;;;5027998;28;20057;-61
2023/07/09 06:15:56;;;;;;;7.35;4.55;;;;;;;;;;5027725;28;20048;-60
2023/07/09 06:18:24;;;;;;;7.13;4.43;;;;;;;;;;5030648;28;20052;-60
2023/07/09 06:20:52;;;;;;;7.00;4.50;;;;;;;;;;5032692;28;20107;-60
2023/07/09 06:23:20;;;;;;;7.57;4.38;;;;;;;;;;5030966;28;20076;-59
2023/07/09 06:25:48;;;;;;;7.30;3.97;;;;;;;;;;5031433;28;21289;-60
2023/07/09 06:28:17;;;;;;;7.15;4.30;;;;;;;;;;5031710;28;20049;-58
2023/07/09 06:30:45;;;;;;;8.05;4.20;;;;;;;;;;5031655;28;20556;-62
2023/07/09 06:33:13;;;;;;;8.27;4.93;;;;;;;;;;5031601;28;20064;-59
2023/07/09 06:35:46;;;;;;;7.55;4.20;;;;;;;;;;5031553;28;20049;-62
2023/07/09 06:38:13;;;;;;;6.45;3.97;;;;;;;;;;5031414;28;20480;-57
2023/07/09 06:40:40;;;;;;;6.88;4.35;;;;;;;;;;5031209;28;20050;-62
2023/07/09 06:43:07;;;;;;;6.10;3.83;;;;;;;;;;5031136;28;20045;-63
2023/07/09 06:45:35;;;;;;;6.35;3.88;;;;;;;;;;5030976;28;20413;-60
2023/07/09 06:48:02;;;;;;;6.88;4.10;;;;;;;;;;5030985;28;20115;-58
2023/07/09 06:50:29;;;;;;;7.57;4.18;;;;;;;;;;5031426;28;20049;-60
2023/07/09 06:52:55;;;;;;;6.82;3.90;;;;;;;;;;5030986;28;20548;-59
2023/07/09 06:55:22;;;;;;;6.60;3.78;;;;;;;;;;5030493;28;20103;-58
2023/07/09 06:57:49;;;;;;;5.60;3.85;;;;;;;;;;5031125;28;20440;-61
2023/07/09 07:00:16;;;;;;;7.40;4.10;;;;;;;;;;5031314;28;20049;-60
2023/07/09 07:02:45;;;;;;;5.47;3.65;;;;;;;;;;5033821;28;20053;-59
2023/07/09 07:05:11;;;;;;;5.88;3.97;;;;;;;;;;5033774;28;20049;-59
2023/07/09 07:07:38;;;;;;;7.03;4.03;;;;;;;;;;5033937;28;20159;-61
2023/07/09 07:10:05;;;;;;;7.13;3.83;;;;;;;;;;5027596;28;20045;-60
2023/07/09 07:12:43;;;;;;;5.90;3.67;;;;;;;;;;5033773;28;20060;-62
2023/07/09 07:15:11;;;;;;;6.13;3.95;;;;;;;;;;5027842;28;20049;-61
2023/07/09 07:17:38;;;;;;;5.57;3.65;;;;;;;;;;5021638;28;20108;-64
2023/07/09 07:20:08;;;;;;;6.55;3.50;;;;;;;;;;5014927;28;20120;-62
2023/07/09 07:22:35;;;;;;;6.68;3.75;;;;;;;;;;5015104;28;20054;-64
2023/07/09 07:25:01;;;;;;;5.78;3.78;;;;;;;;;;5026986;28;20054;-65
2023/07/09 07:27:28;;;;;;;7.50;4.00;;;;;;;;;;5034658;28;20103;-64
2023/07/09 07:29:55;;;;;;;6.38;3.65;;;;;;;;;;5034173;28;20053;-67
2023/07/09 07:32:22;;;;;;;6.82;4.05;;;;;;;;;;5034692;28;20446;-63
2023/07/09 07:34:49;;;;;;;6.85;3.90;;;;;;;;;;5034405;28;20111;-63
2023/07/09 07:37:20;;;;;;;7.32;4.30;;;;;;;;;;5034601;28;20049;-63
2023/07/09 07:39:47;;;;;;;7.72;4.15;;;;;;;;;;5034656;28;20085;-62
2023/07/09 07:42:14;;;;;;;5.75;3.83;;;;;;;;;;5034161;28;20057;-58
2023/07/09 07:44:41;;;;;;;7.60;4.15;;;;;;;;;;5034329;28;20447;-60
2023/07/09 07:47:08;;;;;;;6.25;3.90;;;;;;;;;;5034477;28;20050;-60
2023/07/09 07:49:35;;;;;;;5.97;3.80;;;;;;;;;;5034327;28;20612;-58
2023/07/09 07:52:03;;;;;;;8.02;4.03;;;;;;;;;;5034168;28;20054;-60
2023/07/09 07:54:32;;;;;;;7.35;4.22;;;;;;;;;;5033791;28;20053;-60
2023/07/09 07:56:59;;;;;;;5.72;3.80;;;;;;;;;;5034269;28;20140;-61
2023/07/09 07:59:26;;;;;;;6.75;4.25;;;;;;;;;;5034014;28;20449;-60
2023/07/09 08:01:52;;;;;;;6.53;3.72;;;;;;;;;;5033967;28;20052;-60
2023/07/09 08:04:19;;;;;;;8.30;4.35;;;;;;;;;;5033417;28;20053;-58
2023/07/09 08:06:47;;;;;;;10.20;5.07;;;;;;;;;;5034085;28;20049;-59
2023/07/09 08:09:14;;;;;;;7.47;4.55;;;;;;;;;;5033816;28;20081;-60
2023/07/09 08:11:42;;;;;;;7.80;4.65;;;;;;;;;;5033718;28;20132;-61
2023/07/09 08:14:09;;;;;;;7.35;5.03;;;;;;;;;;5033524;28;20050;-61
2023/07/09 08:16:36;;;;;;;7.70;4.80;;;;;;;;;;5033800;28;20049;-60
2023/07/09 08:19:02;;;;;;;6.30;4.43;;;;;;;;;;5033495;28;20050;-60
2023/07/09 08:21:29;;;;;;;6.88;4.50;;;;;;;;;;5033457;28;20514;-60
2023/07/09 08:23:56;;;;;;;8.07;4.05;;;;;;;;;;5033179;28;20525;-62
2023/07/09 08:26:23;;;;;;;8.25;4.57;;;;;;;;;;5033378;28;20078;-61
2023/07/09 08:28:52;;;;;;;8.27;4.30;;;;;;;;;;5033362;28;20056;-60
2023/07/09 08:31:19;;;;;;;8.25;4.10;;;;;;;;;;5033470;28;20469;-60
2023/07/09 08:33:46;;;;;;;6.53;3.90;;;;;;;;;;5033422;28;20050;-60
2023/07/09 08:36:13;;;;;;;7.10;4.13;;;;;;;;;;5033109;28;20114;-61
2023/07/09 08:38:39;;;;;;;7.72;4.03;;;;;;;;;;5033198;28;20103;-60
2023/07/09 08:41:17;;;;;;;6.38;4.20;;;;;;;;;;5032447;28;20080;-60
2023/07/09 08:43:57;;;;;;;6.93;4.05;;;;;;;;;;5033127;28;20049;-62
2023/07/09 08:46:34;;;;;;;6.28;4.07;;;;;;;;;;5033108;28;20058;-60
2023/07/09 08:49:04;;;;;;;7.60;4.72;;;;;;;;;;5033238;28;20049;-61
2023/07/09 08:51:38;;;;;;;9.70;5.05;;;;;;;;;;5033144;28;20095;-61
2023/07/09 08:54:14;;;;;;;6.50;4.28;;;;;;;;;;5032628;28;20092;-58
2023/07/09 08:56:42;;;;;;;5.90;4.07;;;;;;;;;;5033047;28;20049;-59
2023/07/09 08:59:15;;;;;;;7.32;4.20;;;;;;;;;;5032875;28;20092;-61
2023/07/09 09:01:55;;;;;;;6.22;4.10;;;;;;;;;;5032757;28;20050;-60
2023/07/09 09:04:25;;;;;;;7.05;4.05;;;;;;;;;;5032577;28;20072;-60
2023/07/09 09:06:58;;;;;;;7.25;4.35;;;;;;;;;;5032853;28;20056;-60
2023/07/09 09:09:30;;;;;;;8.45;4.45;;;;;;;;;;5032800;28;20503;-59
2023/07/09 09:12:05;;;;;;;8.85;4.20;;;;;;;;;;5032598;28;20507;-59
2023/07/09 09:14:35;;;;;;;6.60;4.10;;;;;;;;;;5032430;28;20060;-60
2023/07/09 09:17:03;;;;;;;8.60;4.55;;;;;;;;;;5032673;28;20119;-60
2023/07/09 09:19:36;;;;;;;7.10;4.47;;;;;;;;;;5032581;28;20064;-60
2023/07/09 09:22:09;;;;;;;8.65;4.57;;;;;;;;;;5032424;28;20056;-58
2023/07/09 09:24:39;;;;;;;7.22;4.20;;;;;;;;;;5031790;28;20057;-61
2023/07/09 09:27:06;;;;;;;6.18;3.78;;;;;;;;;;5032460;28;20045;-60
2023/07/09 09:29:35;;;;;;;5.93;3.80;;;;;;;;;;5032458;28;20045;-61
2023/07/09 09:32:19;;;;;;;6.78;3.97;;;;;;;;;;5032403;28;20057;-61
2023/07/09 09:34:45;;;;;;;6.85;3.70;;;;;;;;;;5032336;28;20053;-62
2023/07/09 09:37:13;;;;;;;7.70;4.95;;;;;;;;;;5032392;28;20107;-60
2023/07/09 09:39:40;;;;;;;6.45;3.78;;;;;;;;;;5032024;28;20049;-60
2023/07/09 09:42:12;;;;;;;8.25;4.25;;;;;;;;;;5032031;28;20057;-60
2023/07/09 09:44:45;;;;;;;7.47;4.10;;;;;;;;;;5032044;28;20046;-61
2023/07/09 09:47:12;;;;;;;9.60;4.25;;;;;;;;;;5032078;28;20053;-61
2023/07/09 09:49:40;;;;;;;5.80;3.85;;;;;;;;;;5032066;28;20078;-61
2023/07/09 09:52:13;;;;;;;6.55;3.97;;;;;;;;;;5031805;28;20085;-61
2023/07/09 09:54:42;;;;;;;7.20;3.80;;;;;;;;;;5031738;28;20068;-60
2023/07/09 09:57:18;;;;;;;7.20;3.58;;;;;;;;;;5032229;28;20053;-61
2023/07/09 09:59:47;;;;;;;6.30;4.15;;;;;;;;;;5031863;28;20103;-61
2023/07/09 10:02:26;;;;;;;6.28;3.58;;;;;;;;;;5031383;28;20723;-61
2023/07/09 10:04:53;;;;;;;7.78;4.53;;;;;;;;;;5028587;28;20079;-65
2023/07/09 10:07:23;;;;;;;6.05;3.90;;;;;;;;;;5032051;28;20454;-64
2023/07/09 10:09:53;;;;;;;6.53;4.30;;;;;;;;;;5031457;28;20045;-61
2023/07/09 10:12:36;;;;;;;6.80;4.38;;;;;;;;;;5031800;28;20107;-61
2023/07/09 10:15:16;;;;;;;7.63;4.25;;;;;;;;;;5031709;28;20045;-60
2023/07/09 10:17:48;;;;;;;8.88;4.93;;;;;;;;;;5031720;28;20064;-60
2023/07/09 10:20:22;;;;;;;7.18;4.35;;;;;;;;;;5031671;28;20499;-61
2023/07/09 10:22:54;;;;;;;6.88;4.15;;;;;;;;;;5031934;28;20080;-58
2023/07/09 10:25:44;;;;;;;6.32;3.90;;;;;;;;;;5031630;28;20049;-65
2023/07/09 10:28:29;;;;;;;13.07;6.25;;;;;;;;;;5031555;28;20060;-59
2023/07/09 10:31:06;;;;;;;7.75;4.95;;;;;;;;;;5031306;28;20061;-60
2023/07/09 10:33:40;;;;;;;6.82;4.07;;;;;;;;;;5030322;28;20050;-61
2023/07/09 10:36:19;;;;;;;8.02;4.40;;;;;;;;;;5031651;28;20053;-61
2023/07/09 10:38:52;;;;;;;7.77;4.97;;;;;;;;;;5023565;28;20439;-61
2023/07/09 10:41:20;;;;;;;7.55;4.53;;;;;;;;;;5027399;28;20136;-61
2023/07/09 10:43:51;;;;;;;7.97;4.68;;;;;;;;;;5031577;28;20053;-61
2023/07/09 10:46:23;;;;;;;8.23;4.82;;;;;;;;;;5027211;28;20410;-61
2023/07/09 10:48:52;;;;;;;6.93;3.90;;;;;;;;;;5018811;28;20049;-59
2023/07/09 10:51:23;;;;;;;6.53;3.88;;;;;;;;;;5028795;28;20057;-60
2023/07/09 10:53:58;;;;;;;7.70;4.53;;;;;;;;;;5031398;28;20045;-60
2023/07/09 10:56:28;;;;;;;6.35;4.55;;;;;;;;;;5026982;28;20042;-60
2023/07/09 10:58:58;;;;;;;;;;;;;;;;;;5024373;28;20056;-59
2023/07/09 11:01:32;;;;;;;8.20;4.20;;;;;;;;;;5025541;28;20007;-60
2023/07/09 11:04:03;;;;;;;7.05;4.07;;;;;;;;;;5025463;28;20053;-60
2023/07/09 11:06:37;;;;;;;7.53;4.35;;;;;;;;;;5034956;28;20053;-59
2023/07/09 11:09:08;;;;;;;6.07;3.80;;;;;;;;;;5035017;28;20057;-60
2023/07/09 11:11:40;;;;;;;8.05;4.88;;;;;;;;;;5033354;28;20057;-58
2023/07/09 11:14:12;;;;;;;7.18;4.03;;;;;;;;;;5024299;28;20052;-59
2023/07/09 11:16:43;;;;;;;6.65;3.88;;;;;;;;;;5028227;28;20050;-59
2023/07/09 11:19:16;;;;;;;7.13;4.10;;;;;;;;;;5032131;28;20770;-59
2023/07/09 11:21:58;;;;;;;8.65;4.40;;;;;;;;;;5028568;28;20061;-60
2023/07/09 11:24:32;;;;;;;6.72;4.18;;;;;;;;;;5032154;28;20083;-61
2023/07/09 11:27:01;;;;;;;8.50;3.63;;;;;;;;;;5023722;28;20096;-60
2023/07/09 11:29:28;;;;;;;7.30;3.65;;;;;;;;;;5034410;28;20060;-60
2023/07/09 11:32:08;;;;;;;5.95;3.80;;;;;;;;;;5034528;28;20092;-60
2023/07/09 11:34:45;;;;;;;7.90;4.07;;;;;;;;;;5033745;28;20045;-59
2023/07/09 11:37:13;;;;;;;5.80;3.78;;;;;;;;;;5034568;28;20054;-60
2023/07/09 11:39:45;;;;;;;6.55;3.65;;;;;;;;;;5034675;28;20482;-59
2023/07/09 11:42:27;;;;;;;7.50;4.13;;;;;;;;;;5034698;28;20465;-60
2023/07/09 11:48:25;;;;;;;9.77;4.72;;;;;;;;;;5031450;28;20048;-60
2023/07/09 11:50:55;;;;;;;7.65;4.30;;;;;;;;;;5032667;28;20553;-60
2023/07/09 11:53:32;;;;;;;8.15;4.13;;;;;;;;;;5032495;28;20049;-59
2023/07/09 11:55:59;;;;;;;8.70;5.82;;;;;;;;;;5024358;28;20050;-59
2023/07/09 11:58:25;;;;;;;6.82;3.97;;;;;;;;;;5021505;28;20132;-60
2023/07/09 12:00:56;;;;;;;8.15;4.20;;;;;;;;;;5020912;28;20057;-60
2023/07/09 12:03:28;;;;;;;7.38;3.95;;;;;;;;;;5034041;28;20045;-60
2023/07/09 12:05:57;;;;;;;6.22;3.90;;;;;;;;;;5032789;28;20072;-60
2023/07/09 12:08:34;;;;;;;6.50;4.13;;;;;;;;;;5034027;28;20053;-60
2023/07/09 12:11:02;;;;;;;8.13;4.13;;;;;;;;;;5033588;28;20057;-60
2023/07/09 12:13:28;;;;;;;5.70;3.80;;;;;;;;;;5014137;28;20113;-59
2023/07/09 12:15:55;;;;;;;5.88;3.90;;;;;;;;;;5013130;28;20104;-60
2023/07/09 12:18:22;;;;;;;6.90;4.10;;;;;;;;;;5014586;28;20104;-60
2023/07/09 12:20:53;;;;;;;8.15;4.28;;;;;;;;;;5015504;28;20495;-59
2023/07/09 12:23:23;;;;;;;6.43;4.10;;;;;;;;;;5031289;28;20388;-60
2023/07/09 12:25:52;;;;;;;6.30;3.75;;;;;;;;;;5033527;28;20457;-60
2023/07/09 12:28:21;;;;;;;7.00;4.30;;;;;;;;;;5037071;28;20052;-60
2023/07/09 12:30:48;;;;;;;6.50;4.15;;;;;;;;;;5034050;28;20294;-60
2023/07/09 12:33:19;;;;;;;6.18;4.25;;;;;;;;;;5033471;28;20160;-62
2023/07/09 12:35:47;;;;;;;6.50;4.07;;;;;;;;;;5015401;28;20057;-61
2023/07/09 12:38:20;;;;;;;7.65;3.97;;;;;;;;;;5029692;28;20054;-61
2023/07/09 12:40:48;;;;;;;5.80;3.80;;;;;;;;;;5033810;28;20084;-61
2023/07/09 12:43:21;;;;;;;6.53;3.63;;;;;;;;;;5021965;28;20096;-65
2023/07/09 12:45:48;;;;;;;6.03;3.95;;;;;;;;;;5022478;28;20081;-68
2023/07/09 12:48:15;;;;;;;5.95;3.92;;;;;;;;;;5033135;28;20140;-64
2023/07/09 12:50:49;;;;;;;6.10;3.92;;;;;;;;;;5015024;28;20045;-64
2023/07/09 12:53:21;;;;;;;7.32;4.45;;;;;;;;;;5032297;28;20103;-63
2023/07/09 12:55:50;;;;;;;7.22;4.70;;;;;;;;;;5033263;28;20427;-63
2023/07/09 12:58:19;;;;;;;;;;;;;;;;;;5033823;28;20041;-67
2023/07/09 13:00:51;;;;;;;24.80;12.52;;;;;;;;;;5032882;28;20341;-59
2023/07/09 13:03:22;;;;;;;9.50;4.65;;;;;;;;;;5032635;28;20514;-60
2023/07/09 13:05:54;;;;;;;10.20;5.25;;;;;;;;;;5030205;28;20132;-61
2023/07/09 13:08:23;;;;;;;29.77;15.73;;;;;;;;;;5030328;28;20132;-62
2023/07/09 13:10:51;;;;;;;17.70;10.55;;;;;;;;;;5030642;28;20049;-61
2023/07/09 13:13:20;;;;;;;22.90;13.10;;;;;;;;;;5030415;28;20146;-61
2023/07/09 13:15:49;;;;;;;;;;;;;;;;;;5031483;28;20077;-61
2023/07/09 13:18:16;;;;;;;10.10;5.97;;;;;;;;;;5031745;28;20333;-58
2023/07/09 13:20:48;;;;;;;11.80;6.70;;;;;;;;;;5037185;22;20042;-77
2023/07/09 13:23:18;;;;;;;7.35;5.28;;;;;;;;;;4996727;28;20046;-78
2023/07/09 13:25:47;;;;;;;9.80;4.13;;;;;;;;;;5011562;28;20042;-78
2023/07/09 13:28:21;;;;;;;6.22;4.22;;;;;;;;;;5021012;28;20081;-79
2023/07/09 13:30:48;;;;;;;8.73;5.80;;;;;;;;;;5017812;28;20048;-78
2023/07/09 13:33:17;;;;;;;8.05;4.05;;;;;;;;;;5016116;28;20061;-77
2023/07/09 13:35:44;;;;;;;7.13;4.72;;;;;;;;;;5015329;28;20050;-78
2023/07/09 13:38:15;;;;;;;5.65;3.50;;;;;;;;;;5016005;28;20052;-78
2023/07/09 13:40:46;;;;;;;9.25;4.57;;;;;;;;;;5014525;28;20129;-78
2023/07/09 13:43:17;;;;;;;7.53;4.45;;;;;;;;;;5011670;28;20050;-78
2023/07/09 13:45:43;;;;;;;6.70;3.90;;;;;;;;;;5016037;28;20073;-78
2023/07/09 13:48:16;;;;;;;6.70;3.58;;;;;;;;;;5020516;28;20072;-78
2023/07/09 13:50:45;;;;;;;6.28;4.03;;;;;;;;;;5023038;28;20060;-78
2023/07/09 13:53:17;;;;;;;5.43;3.83;;;;;;;;;;5016183;28;20046;-77
2023/07/09 13:55:45;;;;;;;6.65;3.85;;;;;;;;;;5013448;28;20057;-78
2023/07/09 13:58:13;;;;;;;7.22;4.05;;;;;;;;;;5017936;28;20046;-78
2023/07/09 14:00:43;;;;;;;5.55;3.72;;;;;;;;;;5016493;28;20459;-77
2023/07/09 14:03:17;;;;;;;6.72;3.92;;;;;;;;;;5013967;28;20133;-78
2023/07/09 14:05:45;;;;;;;6.47;3.80;;;;;;;;;;5010484;28;20489;-77
2023/07/09 14:08:12;;;;;;;7.97;4.03;;;;;;;;;;5012520;28;20461;-77
2023/07/09 14:10:39;;;;;;;5.72;3.50;;;;;;;;;;5006745;28;20136;-78
2023/07/09 14:13:10;;;;;;;5.88;3.58;;;;;;;;;;5009908;28;20073;-78
2023/07/09 14:15:37;;;;;;;6.57;3.65;;;;;;;;;;5012435;28;20058;-77
2023/07/09 14:18:06;;;;;;;6.93;4.10;;;;;;;;;;5008153;28;20100;-77
2023/07/09 14:20:33;;;;;;;6.30;3.30;;;;;;;;;;5013781;28;20104;-77
2023/07/09 14:23:00;;;;;;;7.10;3.50;;;;;;;;;;5014952;28;20145;-78
2023/07/09 14:25:30;;;;;;;7.53;4.25;;;;;;;;;;5013477;28;20132;-79
2023/07/09 14:27:57;;;;;;;;;;;;;;;;;;5019845;28;20053;-78
2023/07/09 14:30:26;;;;;;;8.05;4.03;;;;;;;;;;5012966;28;20392;-78
2023/07/09 14:32:53;;;;;;;6.50;4.35;;;;;;;;;;5013070;28;20072;-78
2023/07/09 14:35:23;;;;;;;6.32;4.45;;;;;;;;;;5014735;28;20050;-78
2023/07/09 14:37:53;;;;;;;7.63;4.00;;;;;;;;;;5015326;28;20054;-78
2023/07/09 14:40:22;;;;;;;6.32;4.05;;;;;;;;;;5017758;28;20060;-78
2023/07/09 14:42:51;;;;;;;5.43;3.50;;;;;;;;;;5018394;28;20140;-77
2023/07/09 14:45:19;;;;;;;;;;;;;;;;;;5019642;28;20428;-77
2023/07/09 14:47:48;;;;;;;6.87;4.27;;;;;;;;;;5016538;28;19971;-77
2023/07/09 14:50:17;;;;;;;6.05;3.08;;;;;;;;;;4998250;28;20092;-77
2023/07/09 14:52:47;;;;;;;7.53;3.75;;;;;;;;;;5001091;28;20437;-77
2023/07/09 14:55:17;;;;;;;4.97;3.53;;;;;;;;;;5012264;28;20064;-84
2023/07/09 14:57:45;;;;;;;6.68;3.60;;;;;;;;;;5019519;28;20046;-78
2023/07/09 15:00:17;;;;;;;6.65;4.07;;;;;;;;;;5018669;28;20136;-78